Terminal Aerodrome Forecast
Issued by NWS Flagstaff, AZ

Current Version | Previous Version | Text Only | Print | Product List | Glossary On
Versions: 1 2 3 4 5 6 7 8 9 10 11 12 13
000
FTUS45 KFGZ 222327
TAFINW
TAF
KINW 222327Z 2300/2324 22024G35KT P6SM FEW150 BKN200
     FM230200 21020G30KT P6SM FEW200
     FM231200 24011KT P6SM FEW050
     FM231800 26012G24KT P6SM SKC=

USA.gov is the U.S. government's official web portal to all federal, state and local government web resources and services.